Time;durP1;ratioP1;P1;durP2;ratioP2;P2;SDS_P1;SDS_P2;PMS_P1;PMS_P2;Temp;Humidity;BMP_temperature;BMP_pressure;BME280_temperature;BME280_humidity;BME280_pressure;Samples;Min_cycle;Max_cycle;Signal;HPM_P1;HPM_P2
2024/02/04 00:01:14;;;;;;;0.85;0.30;;;7.60;99.90;;;;;;6151099;23;20411;-83
2024/02/04 00:03:44;;;;;;;1.13;0.50;;;8.10;99.90;;;;;;6176841;23;20024;-81
2024/02/04 00:06:15;;;;;;;1.10;0.40;;;8.10;99.90;;;;;;6176859;23;20025;-81
2024/02/04 00:08:45;;;;;;;1.88;0.50;;;8.10;99.90;;;;;;6175171;23;20044;-83
2024/02/04 00:14:01;;;;;;;1.67;0.35;;;9.40;99.90;;;;;;6153259;23;20017;-80
2024/02/04 00:16:30;;;;;;;1.65;0.32;;;8.50;99.90;;;;;;6196747;23;20017;-82
2024/02/04 00:19:02;;;;;;;0.85;0.30;;;8.70;99.90;;;;;;6212683;23;20028;-80
2024/02/04 00:21:33;;;;;;;0.50;0.20;;;9.00;99.90;;;;;;6215247;23;20051;-82
2024/02/04 00:24:09;;;;;;;0.50;0.13;;;9.10;99.90;;;;;;6177108;23;20029;-80
2024/02/04 00:26:42;;;;;;;0.50;0.13;;;9.10;99.90;;;;;;6178638;23;20022;-83
2024/02/04 00:29:12;;;;;;;1.50;0.37;;;9.00;99.90;;;;;;6178286;23;20025;-82
2024/02/04 00:31:44;;;;;;;0.75;0.25;;;9.70;99.90;;;;;;6153074;23;20052;-83
2024/02/04 00:34:16;;;;;;;1.23;0.40;;;9.00;99.90;;;;;;6152719;23;20017;-84
2024/02/04 00:36:46;;;;;;;1.42;0.30;;;9.00;99.90;;;;;;6152612;23;20026;-79
2024/02/04 00:39:19;;;;;;;0.98;0.20;;;9.20;99.90;;;;;;6177936;23;20024;-82
2024/02/04 00:41:48;;;;;;;1.23;0.32;;;9.20;99.90;;;;;;6151508;23;20044;-82
2024/02/04 00:44:18;;;;;;;0.50;0.45;;;9.00;99.90;;;;;;6127946;23;20068;-83
2024/02/04 00:46:56;;;;;;;0.45;0.20;;;8.80;99.90;;;;;;6154117;23;20064;-81
2024/02/04 00:49:26;;;;;;;0.82;0.10;;;9.00;99.90;;;;;;6127461;23;20049;-82
2024/02/04 00:51:56;;;;;;;2.33;0.20;;;8.90;99.90;;;;;;6151620;23;20014;-81
2024/02/04 00:54:30;;;;;;;0.63;0.30;;;8.80;99.90;;;;;;6176740;23;20013;-83
2024/02/04 00:57:02;;;;;;;1.00;0.10;;;9.00;99.90;;;;;;6117996;23;20401;-82
2024/02/04 00:59:31;;;;;;;0.77;0.30;;;9.00;99.90;;;;;;6118452;23;20089;-82
2024/02/04 01:02:03;;;;;;;1.85;0.30;;;8.90;99.90;;;;;;6118402;23;20013;-85
2024/02/04 01:04:33;;;;;;;1.65;0.20;;;9.00;99.90;;;;;;6118267;23;20014;-84
2024/02/04 01:07:08;;;;;;;0.82;0.20;;;9.40;99.90;;;;;;6093720;23;20022;-85
2024/02/04 01:09:46;;;;;;;0.88;0.20;;;8.90;99.90;;;;;;6093100;23;20038;-81
2024/02/04 01:12:35;;;;;;;0.73;0.20;;;8.90;99.90;;;;;;6099845;23;20026;-81
2024/02/04 01:15:11;;;;;;;0.80;0.20;;;8.90;99.90;;;;;;6094887;23;20050;-82
2024/02/04 01:17:41;;;;;;;0.60;0.20;;;8.90;99.90;;;;;;6118594;23;20022;-83
2024/02/04 01:20:13;;;;;;;0.85;0.20;;;9.00;99.90;;;;;;6094456;23;20152;-82
2024/02/04 01:23:31;;;;;;;0.98;0.17;;;9.00;99.90;;;;;;6081358;23;20022;-75
2024/02/04 01:26:50;;;;;;;0.38;0.13;;;8.90;99.90;;;;;;6099983;23;20033;-76
2024/02/04 01:29:18;;;;;;;0.52;0.10;;;8.90;99.90;;;;;;6158428;23;20089;-76
2024/02/04 01:31:48;;;;;;;1.10;0.73;;;8.70;99.90;;;;;;6192535;23;20446;-76
2024/02/04 01:34:16;;;;;;;1.20;0.20;;;8.60;99.90;;;;;;6195524;23;20020;-76
2024/02/04 01:36:45;;;;;;;0.93;0.20;;;8.50;99.90;;;;;;6194907;23;20096;-76
2024/02/04 01:39:17;;;;;;;2.25;0.20;;;8.50;99.90;;;;;;6195734;23;20059;-76
2024/02/04 01:41:45;;;;;;;0.98;0.13;;;8.50;99.90;;;;;;6194476;23;20025;-76
2024/02/04 01:44:16;;;;;;;0.50;0.20;;;8.60;99.90;;;;;;6195552;23;20107;-77
2024/02/04 01:46:45;;;;;;;1.20;0.30;;;8.40;99.90;;;;;;6195500;23;20358;-76
2024/02/04 01:49:13;;;;;;;0.93;0.20;;;8.40;99.90;;;;;;6196230;23;20021;-76
2024/02/04 01:51:42;;;;;;;0.60;0.20;;;8.40;99.90;;;;;;6195616;23;20468;-76
2024/02/04 01:54:10;;;;;;;0.40;0.13;;;8.30;99.90;;;;;;6221838;23;20473;-76
2024/02/04 01:56:39;;;;;;;0.85;0.30;;;8.40;99.90;;;;;;6195633;23;20020;-76
2024/02/04 01:59:07;;;;;;;1.23;0.38;;;8.40;99.90;;;;;;6194586;23;20017;-76
2024/02/04 02:01:37;;;;;;;1.75;0.20;;;8.30;99.90;;;;;;6195136;23;20016;-76
2024/02/04 02:04:06;;;;;;;1.05;0.30;;;8.40;99.90;;;;;;6221745;23;20035;-76
2024/02/04 02:06:41;;;;;;;0.60;0.20;;;8.30;99.90;;;;;;6195362;23;20029;-76
2024/02/04 02:09:12;;;;;;;0.65;0.20;;;8.30;99.90;;;;;;6194951;23;20094;-75
2024/02/04 02:11:45;;;;;;;0.88;0.30;;;8.30;99.90;;;;;;6194995;23;20028;-76
2024/02/04 02:14:15;;;;;;;;;;;8.40;99.90;;;;;;6194961;23;20020;-77
2024/02/04 02:16:46;;;;;;;1.95;0.30;;;8.40;99.90;;;;;;6219443;23;20325;-76
2024/02/04 02:19:32;;;;;;;1.25;0.30;;;8.40;99.90;;;;;;6194201;23;20358;-76
2024/02/04 02:22:07;;;;;;;2.95;0.75;;;8.70;99.90;;;;;;6195254;23;20024;-76
2024/02/04 02:24:39;;;;;;;0.80;0.25;;;8.50;99.90;;;;;;6195036;23;20107;-75
2024/02/04 02:27:09;;;;;;;1.70;0.47;;;8.50;99.90;;;;;;6195078;23;20028;-76
2024/02/04 02:29:38;;;;;;;1.08;0.50;;;8.50;99.90;;;;;;6195443;23;20025;-76
2024/02/04 02:32:08;;;;;;;2.38;0.65;;;8.50;99.90;;;;;;6200664;23;20039;-77
2024/02/04 02:34:37;;;;;;;1.77;0.60;;;8.50;99.90;;;;;;6208299;23;20016;-78
2024/02/04 02:37:16;;;;;;;2.92;0.70;;;8.50;99.90;;;;;;6232638;23;20047;-78
2024/02/04 02:39:57;;;;;;;2.03;0.50;;;8.40;99.90;;;;;;6202721;23;20025;-78
2024/02/04 02:42:29;;;;;;;1.25;0.40;;;8.30;99.90;;;;;;6207450;23;20031;-78
2024/02/04 02:45:05;;;;;;;1.80;0.88;;;8.20;99.90;;;;;;6182976;23;20017;-78
2024/02/04 02:47:36;;;;;;;2.45;0.50;;;8.20;99.90;;;;;;6205939;23;20016;-78
2024/02/04 02:50:07;;;;;;;1.45;0.60;;;8.20;99.90;;;;;;6205922;23;20067;-78
2024/02/04 02:52:36;;;;;;;2.05;0.80;;;8.30;99.90;;;;;;6207624;23;20024;-78
2024/02/04 02:55:07;;;;;;;2.25;0.70;;;8.20;99.90;;;;;;6209213;23;20028;-78
2024/02/04 02:57:36;;;;;;;1.40;0.63;;;8.20;99.90;;;;;;6208880;23;20024;-78
2024/02/04 03:00:09;;;;;;;1.77;0.63;;;8.30;99.90;;;;;;6204346;23;20358;-78
2024/02/04 03:02:37;;;;;;;2.30;0.75;;;8.30;99.90;;;;;;6205581;23;20022;-78
2024/02/04 03:05:07;;;;;;;1.35;0.55;;;8.20;99.90;;;;;;6180667;23;20013;-78
2024/02/04 03:07:36;;;;;;;2.40;0.60;;;8.20;99.90;;;;;;6203753;23;20103;-78
2024/02/04 03:10:13;;;;;;;2.85;0.75;;;8.10;99.90;;;;;;6204307;23;20025;-78
2024/02/04 03:12:42;;;;;;;3.35;1.10;;;8.10;99.90;;;;;;6204401;23;20072;-78
2024/02/04 03:15:10;;;;;;;1.90;0.80;;;7.90;99.90;;;;;;6210921;23;20021;-78
2024/02/04 03:17:39;;;;;;;2.65;1.10;;;8.10;99.90;;;;;;6208013;23;20027;-78
2024/02/04 03:20:09;;;;;;;2.55;0.70;;;8.10;99.90;;;;;;6208295;23;20089;-78
2024/02/04 03:22:38;;;;;;;2.33;0.80;;;8.00;99.90;;;;;;6205580;23;20024;-78
2024/02/04 03:25:12;;;;;;;2.47;0.77;;;8.10;99.90;;;;;;6208181;23;20059;-78
2024/02/04 03:27:44;;;;;;;2.50;0.60;;;8.00;99.90;;;;;;6207229;23;20025;-78
2024/02/04 03:30:13;;;;;;;1.33;0.50;;;8.10;99.90;;;;;;6206447;23;20021;-78
2024/02/04 03:32:41;;;;;;;2.03;0.52;;;8.20;99.90;;;;;;6207660;23;20047;-78
2024/02/04 03:35:12;;;;;;;1.67;0.60;;;8.10;99.90;;;;;;6206836;23;20030;-78
2024/02/04 03:37:41;;;;;;;1.48;0.68;;;8.00;99.90;;;;;;6208696;23;20397;-78
2024/02/04 03:40:14;;;;;;;2.33;0.85;;;8.10;99.90;;;;;;6207695;23;20046;-78
2024/02/04 03:42:53;;;;;;;2.72;1.08;;;8.30;99.90;;;;;;6201061;23;20048;-76
2024/02/04 03:45:24;;;;;;;1.15;0.60;;;8.30;99.90;;;;;;6193495;23;20050;-76
2024/02/04 03:47:52;;;;;;;1.67;0.70;;;8.40;99.90;;;;;;6194796;23;20335;-77
2024/02/04 03:50:22;;;;;;;1.33;0.43;;;8.40;99.90;;;;;;6187884;23;20024;-76
2024/02/04 03:52:50;;;;;;;1.20;0.70;;;8.30;99.90;;;;;;6187697;23;20027;-76
2024/02/04 03:55:19;;;;;;;1.77;0.90;;;8.30;99.90;;;;;;6165904;23;20480;-76
2024/02/04 03:57:57;;;;;;;1.70;1.02;;;8.40;99.90;;;;;;6188053;23;20028;-78
2024/02/04 04:00:36;;;;;;;1.80;0.83;;;8.30;99.90;;;;;;6165413;23;20048;-76
2024/02/04 04:03:05;;;;;;;2.50;1.10;;;8.40;99.90;;;;;;6188067;23;20353;-76
2024/02/04 04:05:34;;;;;;;3.83;0.82;;;8.40;99.90;;;;;;6187649;23;20099;-77
2024/02/04 04:08:07;;;;;;;1.67;0.90;;;8.40;99.90;;;;;;6163163;23;20031;-77
2024/02/04 04:10:35;;;;;;;1.50;0.68;;;8.40;99.90;;;;;;6163810;23;20028;-77
2024/02/04 04:13:09;;;;;;;1.70;0.65;;;8.40;99.90;;;;;;6192605;23;20021;-77
2024/02/04 04:15:38;;;;;;;2.30;1.00;;;8.50;99.90;;;;;;6168409;23;20402;-76
2024/02/04 04:18:12;;;;;;;1.95;0.90;;;8.60;99.90;;;;;;6161464;23;20025;-76
2024/02/04 04:20:42;;;;;;;2.47;1.13;;;8.60;99.90;;;;;;6136656;23;20088;-76
2024/02/04 04:23:15;;;;;;;1.65;1.17;;;8.60;99.90;;;;;;6159539;23;20029;-75
2024/02/04 04:25:44;;;;;;;2.25;1.05;;;8.60;99.90;;;;;;6134108;23;20045;-76
2024/02/04 04:28:14;;;;;;;2.55;0.90;;;8.50;99.90;;;;;;6133302;23;20455;-77
2024/02/04 04:30:45;;;;;;;2.78;1.05;;;8.50;99.90;;;;;;6157845;23;20029;-76
2024/02/04 04:33:13;;;;;;;2.63;0.90;;;8.50;99.90;;;;;;6133443;23;20037;-76
2024/02/04 04:35:42;;;;;;;2.40;1.23;;;8.50;99.90;;;;;;6157292;23;20451;-76
2024/02/04 04:38:14;;;;;;;2.60;1.50;;;8.50;99.90;;;;;;6131897;23;20134;-77
2024/02/04 04:40:42;;;;;;;3.33;1.70;;;8.50;99.90;;;;;;6156094;23;20025;-75
2024/02/04 04:43:11;;;;;;;3.22;1.60;;;8.40;99.90;;;;;;6156848;23;20025;-76
2024/02/04 04:45:41;;;;;;;3.80;1.60;;;8.40;99.90;;;;;;6156656;23;20439;-77
2024/02/04 04:48:09;;;;;;;3.03;1.38;;;8.40;99.90;;;;;;6156437;23;20025;-76
2024/02/04 04:50:38;;;;;;;2.75;1.67;;;8.50;99.90;;;;;;6131270;23;20021;-75
2024/02/04 04:53:07;;;;;;;3.03;1.63;;;8.40;99.90;;;;;;6161052;23;20029;-78
2024/02/04 04:55:35;;;;;;;2.58;1.65;;;8.50;99.90;;;;;;6160299;23;20048;-78
2024/02/04 04:58:04;;;;;;;2.95;1.80;;;8.40;99.90;;;;;;6199338;23;20021;-78
2024/02/04 05:00:37;;;;;;;2.88;1.58;;;8.40;99.90;;;;;;6199306;23;20041;-78
2024/02/04 05:03:11;;;;;;;3.58;1.60;;;8.40;99.90;;;;;;6200699;23;20021;-78
2024/02/04 05:05:40;;;;;;;2.42;1.00;;;8.30;99.90;;;;;;6196638;23;20104;-77
2024/02/04 05:08:12;;;;;;;2.63;1.35;;;8.20;99.90;;;;;;6200296;23;20036;-78
2024/02/04 05:10:40;;;;;;;2.30;1.17;;;8.10;99.90;;;;;;6197711;23;20017;-77
2024/02/04 05:13:09;;;;;;;3.17;1.40;;;8.10;99.90;;;;;;6200378;23;20001;-77
2024/02/04 05:15:38;;;;;;;3.08;1.90;;;7.90;99.90;;;;;;6200255;23;20021;-77
2024/02/04 05:18:06;;;;;;;5.30;1.50;;;8.00;99.90;;;;;;6197646;23;20455;-78
2024/02/04 05:20:43;;;;;;;3.53;1.55;;;8.00;99.90;;;;;;6197198;23;20067;-76
2024/02/04 05:23:12;;;;;;;2.63;1.50;;;8.00;99.90;;;;;;6199891;23;20017;-78
2024/02/04 05:25:40;;;;;;;3.95;1.33;;;8.00;99.90;;;;;;6201027;23;20017;-78
2024/02/04 05:28:11;;;;;;;3.38;1.67;;;7.40;99.90;;;;;;6197534;23;20017;-78
2024/02/04 05:30:39;;;;;;;4.30;2.70;;;7.90;99.90;;;;;;6200068;23;20028;-78
2024/02/04 05:33:08;;;;;;;3.10;1.70;;;7.90;99.90;;;;;;6198836;23;20465;-78
2024/02/04 05:35:38;;;;;;;5.13;1.88;;;7.90;99.90;;;;;;6202173;23;20013;-78
2024/02/04 05:38:07;;;;;;;2.75;1.60;;;7.90;99.90;;;;;;6200609;23;20390;-78
2024/02/04 05:40:35;;;;;;;5.60;2.72;;;7.90;99.90;;;;;;6199993;23;20067;-78
2024/02/04 05:43:06;;;;;;;3.28;1.65;;;7.90;99.90;;;;;;6209175;23;20075;-78
2024/02/04 05:45:41;;;;;;;5.22;2.08;;;7.90;99.90;;;;;;6204592;23;20044;-78
2024/02/04 05:48:10;;;;;;;4.32;1.70;;;7.80;99.90;;;;;;6204810;23;20016;-77
2024/02/04 05:50:41;;;;;;;4.35;1.77;;;7.90;99.90;;;;;;6226375;23;20454;-79
2024/02/04 05:53:10;;;;;;;5.00;2.70;;;7.90;99.90;;;;;;6201696;23;20505;-78
2024/02/04 05:55:40;;;;;;;3.55;1.67;;;7.80;99.90;;;;;;6198379;23;20020;-78
2024/02/04 05:58:10;;;;;;;3.22;1.90;;;7.80;99.90;;;;;;6200134;23;20012;-78
2024/02/04 06:00:39;;;;;;;5.57;3.20;;;7.20;99.90;;;;;;6206492;23;20017;-78
2024/02/04 06:03:09;;;;;;;7.47;4.13;;;7.70;99.90;;;;;;6205213;23;20025;-81
2024/02/04 06:05:38;;;;;;;5.65;2.92;;;7.60;99.90;;;;;;6212216;23;20024;-81
2024/02/04 06:08:08;;;;;;;7.68;4.30;;;7.10;99.90;;;;;;6238442;23;20012;-83
2024/02/04 06:10:37;;;;;;;5.20;2.97;;;7.70;99.90;;;;;;6211316;23;20017;-80
2024/02/04 06:13:06;;;;;;;17.13;7.57;;;7.60;99.90;;;;;;6213510;23;20024;-83
2024/02/04 06:15:36;;;;;;;14.32;6.72;;;7.50;99.90;;;;;;6212719;23;20375;-82
2024/02/04 06:18:05;;;;;;;24.73;10.45;;;7.50;99.90;;;;;;6240596;23;20016;-82
2024/02/04 06:20:34;;;;;;;16.63;8.88;;;7.50;99.90;;;;;;6240124;23;20032;-82
2024/02/04 06:23:03;;;;;;;9.70;4.53;;;7.40;99.90;;;;;;6213408;23;20025;-81
2024/02/04 06:25:33;;;;;;;6.55;3.67;;;7.40;99.90;;;;;;6239166;23;20027;-82
2024/02/04 06:28:02;;;;;;;4.70;2.10;;;7.40;99.90;;;;;;6214360;23;20004;-82
2024/02/04 06:30:31;;;;;;;5.95;2.28;;;7.70;99.90;;;;;;6214273;23;20016;-83
2024/02/04 06:32:59;;;;;;;4.13;1.85;;;7.30;99.90;;;;;;6214857;23;20016;-82
2024/02/04 06:35:28;;;;;;;6.53;2.45;;;7.70;99.90;;;;;;6215301;23;20008;-82
2024/02/04 06:37:57;;;;;;;8.98;3.90;;;7.30;99.90;;;;;;6215216;23;20020;-80
2024/02/04 06:40:28;;;;;;;9.80;4.63;;;7.30;99.90;;;;;;6214659;23;20016;-83
2024/02/04 06:42:58;;;;;;;9.07;3.20;;;7.30;99.90;;;;;;6215101;23;20012;-83
2024/02/04 06:45:27;;;;;;;10.50;4.28;;;7.30;99.90;;;;;;6241988;23;20012;-81
2024/02/04 06:47:56;;;;;;;304.88;101.63;;;7.50;99.90;;;;;;6214632;23;20009;-81
2024/02/04 06:50:25;;;;;;;388.20;151.95;;;7.50;99.90;;;;;;6213909;23;20001;-81
2024/02/04 06:52:53;;;;;;;146.23;60.90;;;7.50;99.90;;;;;;6214921;23;20023;-82
2024/02/04 06:55:22;;;;;;;194.80;72.50;;;7.60;99.90;;;;;;6214742;23;20024;-81
2024/02/04 06:57:52;;;;;;;108.25;44.35;;;7.60;99.90;;;;;;6216073;23;20004;-81
2024/02/04 07:00:27;;;;;;;108.03;61.45;;;8.50;99.90;;;;;;6213702;23;20019;-82
2024/02/04 07:10:49;;;;;;;4.40;2.27;;;7.90;99.90;;;;;;6093686;23;20017;-87
2024/02/04 07:14:00;;;;;;;7.00;3.55;;;8.10;99.90;;;;;;6012361;23;20023;-80
2024/02/04 07:20:52;;;;;;;4.18;2.17;;;8.10;99.90;;;;;;5978102;24;20169;-84
2024/02/04 07:23:42;;;;;;;5.10;2.10;;;8.10;99.90;;;;;;5979215;23;20077;-83
2024/02/04 07:27:21;;;;;;;3.65;2.10;;;8.00;99.90;;;;;;5924565;24;20040;-83
2024/02/04 07:30:10;;;;;;;3.47;2.08;;;8.10;99.90;;;;;;5923498;24;20025;-78
2024/02/04 07:33:00;;;;;;;4.10;1.90;;;8.20;99.90;;;;;;5923611;24;20047;-83
2024/02/04 07:35:37;;;;;;;3.58;2.17;;;8.20;99.90;;;;;;5924374;24;20025;-83
2024/02/04 07:38:14;;;;;;;6.35;3.10;;;7.90;99.90;;;;;;5881425;24;20021;-84
2024/02/04 07:49:23;;;;;;;2.53;1.60;;;8.50;99.90;;;;;;5950663;24;20085;-79
2024/02/04 07:51:56;;;;;;;2.08;1.27;;;8.70;99.90;;;;;;6004049;23;20043;-82
2024/02/04 07:54:57;;;;;;;2.10;1.27;;;8.80;99.90;;;;;;6005576;24;20008;-83
2024/02/04 07:58:14;;;;;;;1.98;1.50;;;8.70;99.90;;;;;;5973428;24;20038;-78
2024/02/04 08:00:54;;;;;;;2.00;1.27;;;8.90;99.90;;;;;;5978699;24;20028;-84
2024/02/04 08:03:34;;;;;;;2.42;1.67;;;8.90;99.90;;;;;;5926228;24;20029;-82
2024/02/04 08:06:07;;;;;;;2.00;1.20;;;9.10;99.90;;;;;;5947864;24;20035;-84
2024/02/04 08:08:47;;;;;;;3.35;2.08;;;8.80;99.90;;;;;;6002015;24;20043;-82
2024/02/04 08:11:30;;;;;;;4.88;3.33;;;9.00;99.90;;;;;;6033918;23;20020;-78
2024/02/04 08:14:01;;;;;;;2.13;0.90;;;9.20;99.90;;;;;;6060669;23;20027;-78
2024/02/04 08:16:48;;;;;;;4.25;2.10;;;9.30;99.90;;;;;;6018645;23;20027;-83
2024/02/04 08:19:41;;;;;;;6.82;3.33;;;9.20;99.90;;;;;;6058872;23;20362;-80
2024/02/04 08:22:14;;;;;;;10.43;3.95;;;9.30;99.90;;;;;;6077496;23;20027;-78
2024/02/04 08:24:46;;;;;;;9.00;2.92;;;9.30;99.90;;;;;;6054663;23;20019;-77
2024/02/04 08:27:18;;;;;;;16.08;7.47;;;9.40;99.90;;;;;;6075044;23;20023;-78
2024/02/04 08:29:46;;;;;;;4.28;1.92;;;9.40;99.90;;;;;;6050993;23;20530;-77
2024/02/04 08:32:17;;;;;;;6.00;2.58;;;9.60;99.90;;;;;;6051890;23;20122;-75
2024/02/04 08:34:53;;;;;;;4.13;1.30;;;9.40;99.90;;;;;;6037350;23;20031;-78
2024/02/04 08:37:29;;;;;;;11.50;6.30;;;9.60;99.90;;;;;;6037251;23;20027;-77
2024/02/04 08:40:01;;;;;;;10.90;3.80;;;9.50;99.90;;;;;;6059069;23;20070;-79
2024/02/04 08:42:32;;;;;;;8.10;5.07;;;9.70;99.90;;;;;;6061064;23;20027;-79
2024/02/04 08:45:02;;;;;;;6.68;4.22;;;9.70;99.90;;;;;;6083100;23;20029;-79
2024/02/04 08:47:33;;;;;;;7.53;3.47;;;9.70;99.90;;;;;;6117133;23;20088;-80
2024/02/04 08:50:04;;;;;;;6.20;2.28;;;9.70;99.90;;;;;;6145433;23;20025;-77
2024/02/04 08:52:36;;;;;;;4.53;1.27;;;9.80;99.90;;;;;;6174587;23;20028;-79
2024/02/04 08:55:08;;;;;;;3.05;0.88;;;9.70;99.90;;;;;;6145571;23;20081;-79
2024/02/04 08:57:37;;;;;;;24.25;12.50;;;9.80;99.90;;;;;;6146071;23;20017;-78
2024/02/04 09:00:11;;;;;;;11.85;4.78;;;9.70;99.90;;;;;;6147085;23;20025;-79
2024/02/04 09:02:46;;;;;;;11.65;4.38;;;9.70;99.90;;;;;;6151022;23;20052;-79
2024/02/04 09:05:21;;;;;;;54.08;21.30;;;9.70;99.90;;;;;;6115698;23;20026;-79
2024/02/04 09:08:01;;;;;;;20.45;8.65;;;9.70;99.90;;;;;;6090587;23;20033;-79
2024/02/04 09:10:34;;;;;;;;;;;9.70;99.90;;;;;;6113853;23;20002;-78
2024/02/04 09:13:03;;;;;;;6.05;2.55;;;9.80;99.90;;;;;;6110434;23;19921;-78
2024/02/04 09:15:32;;;;;;;37.20;12.35;;;10.70;99.90;;;;;;6088065;23;20055;-79
2024/02/04 09:18:01;;;;;;;16.58;6.00;;;10.00;99.90;;;;;;6090263;23;20051;-78
2024/02/04 09:20:30;;;;;;;18.65;6.03;;;10.00;99.90;;;;;;6091203;23;20038;-78
2024/02/04 09:23:02;;;;;;;18.77;7.78;;;10.00;99.90;;;;;;6088480;23;20059;-79
2024/02/04 09:25:36;;;;;;;21.90;7.85;;;10.10;99.90;;;;;;6068212;23;20023;-80
2024/02/04 09:28:09;;;;;;;2.17;0.63;;;10.40;99.90;;;;;;6089241;23;20022;-79
2024/02/04 09:30:39;;;;;;;9.00;3.20;;;10.20;99.90;;;;;;6090634;23;20026;-79
2024/02/04 09:33:19;;;;;;;32.03;13.40;;;10.10;99.90;;;;;;6065789;23;20018;-83
2024/02/04 09:36:13;;;;;;;14.32;5.28;;;10.10;99.90;;;;;;6057362;23;20057;-80
2024/02/04 09:38:50;;;;;;;19.90;8.00;;;10.10;99.90;;;;;;6057512;23;20019;-82
2024/02/04 09:41:22;;;;;;;4.47;2.00;;;10.20;99.90;;;;;;6055452;23;20048;-78
2024/02/04 09:43:54;;;;;;;16.65;6.78;;;10.30;99.90;;;;;;6034710;23;20026;-79
2024/02/04 09:46:31;;;;;;;5.85;2.60;;;10.50;99.90;;;;;;6056264;23;20026;-78
2024/02/04 09:49:16;;;;;;;2.13;0.88;;;9.80;99.90;;;;;;6033810;23;20101;-78
2024/02/04 09:52:08;;;;;;;10.70;4.15;;;10.70;99.90;;;;;;6088734;23;20078;-83
2024/02/04 09:54:49;;;;;;;3.25;1.35;;;10.80;99.90;;;;;;6061815;23;20027;-83
2024/02/04 09:57:50;;;;;;;11.15;4.93;;;11.00;99.90;;;;;;6032227;23;20074;-82
2024/02/04 10:00:26;;;;;;;20.50;9.52;;;10.90;99.90;;;;;;6023235;23;20030;-80
2024/02/04 10:03:02;;;;;;;11.77;4.55;;;10.90;99.90;;;;;;6115625;23;20029;-82
2024/02/04 10:05:33;;;;;;;9.55;3.60;;;9.80;99.90;;;;;;6119761;23;20024;-80
2024/02/04 10:08:14;;;;;;;19.00;6.68;;;11.00;99.90;;;;;;6122809;23;20021;-84
2024/02/04 10:10:54;;;;;;;16.52;6.63;;;10.70;99.90;;;;;;6122240;23;20026;-83
2024/02/04 10:16:23;;;;;;;10.15;4.43;;;10.90;99.90;;;;;;6151739;23;20025;-78
2024/02/04 10:18:56;;;;;;;;;;;11.00;99.90;;;;;;6152188;23;20014;-84
2024/02/04 10:21:32;;;;;;;8.43;3.97;;;11.20;99.90;;;;;;6150673;23;19921;-78
2024/02/04 10:27:39;;;;;;;16.67;6.38;;;11.60;99.90;;;;;;6178794;23;20020;-79
2024/02/04 10:30:58;;;;;;;7.50;3.40;;;11.80;99.90;;;;;;6178658;23;20032;-84
2024/02/04 10:33:40;;;;;;;10.93;3.95;;;12.10;99.90;;;;;;6127647;23;20069;-82
2024/02/04 10:37:47;;;;;;;12.10;4.57;;;12.10;99.90;;;;;;6179600;23;20037;-84
2024/02/04 10:44:10;;;;;;;9.35;4.22;;;11.80;99.90;;;;;;6094525;23;20026;-83
2024/02/04 10:47:17;;;;;;;6.85;3.17;;;11.90;99.90;;;;;;6117613;23;20082;-81
2024/02/04 10:49:55;;;;;;;2.13;0.80;;;11.80;99.90;;;;;;6092012;23;20070;-80
2024/02/04 10:52:38;;;;;;;1.67;0.77;;;11.80;99.90;;;;;;6094515;23;20006;-84
2024/02/04 10:56:23;;;;;;;1.55;0.63;;;11.90;99.90;;;;;;6099475;23;20123;-82
2024/02/04 10:59:24;;;;;;;2.92;1.08;;;11.90;99.90;;;;;;6111845;23;20023;-80
2024/02/04 11:02:10;;;;;;;3.00;1.00;;;11.80;99.90;;;;;;6090992;23;20042;-84
2024/02/04 11:05:08;;;;;;;1.90;0.65;;;12.90;99.90;;;;;;6062977;23;20043;-78
2024/02/04 11:07:40;;;;;;;1.90;0.73;;;11.90;99.90;;;;;;6084161;23;20030;-78
2024/02/04 11:10:19;;;;;;;2.00;1.35;;;11.40;99.90;;;;;;6058737;23;20023;-82
2024/02/04 11:13:11;;;;;;;3.42;0.73;;;12.10;99.90;;;;;;6031182;23;20047;-83
2024/02/04 11:15:46;;;;;;;15.07;7.65;;;12.30;99.90;;;;;;6006058;23;20059;-80
2024/02/04 11:18:37;;;;;;;7.87;2.40;;;12.40;99.90;;;;;;5999141;24;20058;-81
2024/02/04 11:21:44;;;;;;;21.77;4.65;;;12.30;99.90;;;;;;6001791;24;20028;-82
2024/02/04 11:24:28;;;;;;;62.15;14.82;;;12.30;99.90;;;;;;5976659;24;20028;-81
2024/02/04 11:26:58;;;;;;;59.67;16.65;;;12.40;99.90;;;;;;5973126;24;20024;-78
2024/02/04 11:29:28;;;;;;;28.55;9.38;;;12.50;99.90;;;;;;5998181;24;20145;-79
2024/02/04 11:32:06;;;;;;;50.35;13.60;;;12.70;99.90;;;;;;5999572;24;20024;-80
2024/02/04 11:34:37;;;;;;;20.95;7.75;;;12.90;99.90;;;;;;5995776;24;20052;-77
2024/02/04 11:37:20;;;;;;;114.32;39.85;;;12.80;99.90;;;;;;5996172;24;20020;-81
2024/02/04 11:39:50;;;;;;;3.15;1.10;;;12.80;99.90;;;;;;5996445;24;20051;-78
2024/02/04 11:42:21;;;;;;;1.77;0.40;;;12.80;99.90;;;;;;6005901;23;20030;-78
2024/02/04 11:44:50;;;;;;;3.90;0.93;;;13.60;99.90;;;;;;6027424;23;20091;-77
2024/02/04 11:47:29;;;;;;;3.45;0.75;;;12.70;99.90;;;;;;6004019;23;20028;-77
2024/02/04 11:50:03;;;;;;;5.05;1.17;;;12.80;99.90;;;;;;6085545;23;20024;-81
2024/02/04 11:52:38;;;;;;;2.33;0.40;;;12.90;99.90;;;;;;6176808;23;20017;-81
2024/02/04 11:58:35;;;;;;;1.00;0.30;;;12.80;99.90;;;;;;6071611;23;20026;-83
2024/02/04 12:01:27;;;;;;;0.60;0.15;;;13.50;99.90;;;;;;6029584;23;20043;-82
2024/02/04 12:08:23;;;;;;;1.58;0.50;;;11.80;99.00;;;;;;6032946;23;20030;-83
2024/02/04 12:22:10;;;;;;;3.58;0.85;;;13.10;98.10;;;;;;5913384;24;20061;-85
2024/02/04 12:24:53;;;;;;;4.68;0.98;;;13.20;97.70;;;;;;5978093;24;20035;-79
2024/02/04 12:31:35;;;;;;;6.72;2.28;;;13.10;97.30;;;;;;6199409;23;20028;-84
2024/02/04 12:34:12;;;;;;;6.15;2.50;;;13.40;97.60;;;;;;6173852;23;20009;-83
2024/02/04 12:36:42;;;;;;;11.27;4.95;;;13.40;97.30;;;;;;6196138;23;20021;-87
2024/02/04 12:39:13;;;;;;;2.70;1.10;;;13.50;97.40;;;;;;6173331;23;20027;-80
2024/02/04 12:44:33;;;;;;;3.08;1.10;;;13.20;97.60;;;;;;6218700;22;20071;-80
2024/02/04 12:47:02;;;;;;;2.25;0.98;;;13.00;97.20;;;;;;6229530;23;20004;-78
2024/02/04 12:49:30;;;;;;;3.00;0.77;;;12.90;97.40;;;;;;6213800;23;20012;-82
2024/02/04 12:52:07;;;;;;;2.95;1.23;;;12.80;97.70;;;;;;6211963;23;20047;-84
2024/02/04 12:54:43;;;;;;;3.95;1.67;;;12.70;98.10;;;;;;6208973;23;20067;-83
2024/02/04 12:57:27;;;;;;;3.95;1.30;;;12.70;98.80;;;;;;6199786;23;20021;-84
2024/02/04 13:00:08;;;;;;;2.78;0.75;;;12.60;99.70;;;;;;6221426;23;20012;-84
2024/02/04 13:03:17;;;;;;;1.90;0.68;;;12.50;99.90;;;;;;6217464;23;20071;-86
2024/02/04 13:06:20;;;;;;;5.80;1.15;;;12.50;99.90;;;;;;6102017;23;20026;-82
2024/02/04 13:09:16;;;;;;;6.38;3.30;;;12.60;99.90;;;;;;6042628;23;20027;-82
2024/02/04 13:11:46;;;;;;;10.35;4.47;;;12.50;99.90;;;;;;6038640;23;20023;-86
2024/02/04 13:14:50;;;;;;;5.68;1.83;;;12.60;99.90;;;;;;6062565;23;20473;-85
2024/02/04 13:17:22;;;;;;;7.32;3.15;;;12.60;99.90;;;;;;6039369;23;20027;-85
2024/02/04 13:20:36;;;;;;;15.60;6.03;;;12.60;99.90;;;;;;6013800;23;20034;-86
2024/02/04 13:23:17;;;;;;;13.75;5.85;;;12.60;99.90;;;;;;6041048;23;20034;-84
2024/02/04 13:30:56;;;;;;;11.70;3.85;;;12.50;99.90;;;;;;5962558;24;20098;-84
2024/02/04 13:33:58;;;;;;;3.80;1.63;;;12.50;99.90;;;;;;5954552;24;20413;-82
2024/02/04 13:36:38;;;;;;;3.65;1.05;;;12.40;99.90;;;;;;5966793;24;20036;-82
2024/02/04 13:46:42;;;;;;;2.95;0.90;;;12.20;99.90;;;;;;5975062;24;20089;-76
2024/02/04 13:52:59;;;;;;;4.53;1.52;;;12.30;99.90;;;;;;5994994;24;20024;-79
2024/02/04 13:55:53;;;;;;;2.72;0.93;;;12.30;99.90;;;;;;5960199;24;20056;-82
2024/02/04 14:03:12;;;;;;;2.80;0.87;;;12.30;99.90;;;;;;5926837;24;20090;-80
2024/02/04 14:14:05;;;;;;;44.97;22.15;;;12.00;99.90;;;;;;5859788;24;20011;-84
2024/02/04 14:17:42;;;;;;;228.15;88.50;;;12.00;99.90;;;;;;5846938;24;20121;-84
2024/02/04 14:21:22;;;;;;;2.80;1.40;;;11.90;99.90;;;;;;5810491;24;20042;-77
2024/02/04 14:24:42;;;;;;;14.77;7.53;;;11.90;99.90;;;;;;5800685;24;20048;-80
2024/02/04 14:27:33;;;;;;;2.75;1.33;;;11.90;99.90;;;;;;5868473;24;20053;-82
2024/02/04 14:30:10;;;;;;;4.95;2.22;;;12.00;99.90;;;;;;5840194;24;20073;-82
2024/02/04 14:40:21;;;;;;;1.63;1.50;;;12.00;99.90;;;;;;5884576;24;20089;-84
2024/02/04 14:49:46;;;;;;;1.45;0.60;;;12.00;99.90;;;;;;5922811;24;20029;-84
2024/02/04 14:52:22;;;;;;;2.78;0.77;;;11.90;99.90;;;;;;5998358;24;20016;-84
2024/02/04 14:55:16;;;;;;;2.72;0.98;;;11.90;99.90;;;;;;5931940;24;20019;-80
2024/02/04 14:57:53;;;;;;;2.25;0.40;;;12.00;99.90;;;;;;5949484;24;20029;-81
2024/02/04 15:00:58;;;;;;;2.78;1.10;;;11.90;99.90;;;;;;5972553;24;20028;-81
2024/02/04 15:03:30;;;;;;;2.70;1.00;;;11.90;99.90;;;;;;5946607;24;20031;-77
2024/02/04 15:06:09;;;;;;;3.38;0.55;;;11.90;99.90;;;;;;5949174;24;20028;-84
2024/02/04 15:08:55;;;;;;;4.85;1.50;;;12.00;99.90;;;;;;5947000;24;20050;-81
2024/02/04 15:12:09;;;;;;;2.88;1.00;;;12.00;99.90;;;;;;5895212;24;20010;-83
2024/02/04 15:18:04;;;;;;;2.50;0.40;;;11.80;99.90;;;;;;5835200;24;20026;-77
2024/02/04 15:20:43;;;;;;;6.05;1.40;;;11.90;99.90;;;;;;5891054;24;20034;-86
2024/02/04 15:23:28;;;;;;;5.47;1.70;;;11.80;99.90;;;;;;5864041;24;20037;-82
2024/02/04 15:26:03;;;;;;;3.70;1.15;;;11.70;99.90;;;;;;5885745;24;20029;-85
2024/02/04 15:28:47;;;;;;;1.38;0.52;;;11.50;99.90;;;;;;5946739;24;20034;-82